createdAt,value
2023-03-22T00:00:48.030Z,74.10
2023-03-22T00:06:20.191Z,73.73
2023-03-22T00:11:52.212Z,73.57
2023-03-22T00:17:23.941Z,73.64
2023-03-22T00:22:55.770Z,72.78
2023-03-22T00:28:27.629Z,73.25
2023-03-22T00:33:59.484Z,73.20
2023-03-22T00:39:31.185Z,73.17
2023-03-22T00:45:02.943Z,73.06
2023-03-22T00:50:35.012Z,72.68
2023-03-22T00:56:06.663Z,72.13
2023-03-22T01:01:38.412Z,72.17
2023-03-22T01:07:10.141Z,71.84
2023-03-22T01:12:42.147Z,71.74
2023-03-22T01:18:14.045Z,71.46
2023-03-22T01:23:46.186Z,71.65
2023-03-22T01:29:17.730Z,71.75
2023-03-22T01:34:49.809Z,71.88
2023-03-22T01:40:22.008Z,72.07
2023-03-22T01:45:53.927Z,72.10
2023-03-22T01:51:25.516Z,72.05
2023-03-22T01:56:57.461Z,72.10
2023-03-22T02:02:29.216Z,71.87
2023-03-22T02:08:01.585Z,71.50
2023-03-22T02:13:33.662Z,71.96
2023-03-22T02:19:05.385Z,72.51
2023-03-22T02:24:37.269Z,72.50
2023-03-22T02:30:09.478Z,73.08
2023-03-22T02:35:41.707Z,72.95
2023-03-22T02:41:14.003Z,73.74
2023-03-22T02:46:46.379Z,73.11
2023-03-22T02:52:18.164Z,73.32
2023-03-22T02:57:50.113Z,73.39
2023-03-22T03:03:22.329Z,73.80
2023-03-22T03:08:54.283Z,76.04
2023-03-22T03:14:26.514Z,75.79
2023-03-22T03:19:58.604Z,76.35
2023-03-22T03:25:30.888Z,76.96
2023-03-22T03:31:04.190Z,77.24
2023-03-22T03:36:36.392Z,76.98
2023-03-22T03:42:07.931Z,77.52
2023-03-22T03:47:39.975Z,77.51
2023-03-22T03:58:41.015Z,77.55
2023-03-22T04:04:13.110Z,77.09
2023-03-22T04:09:44.682Z,77.15
2023-03-22T04:15:16.655Z,77.40
2023-03-22T04:17:40.731Z,77.23
2023-03-22T04:23:12.254Z,77.27
2023-03-22T04:28:44.019Z,77.71
2023-03-22T04:34:15.426Z,77.99
2023-03-22T04:45:17.103Z,78.79
2023-03-22T04:50:48.898Z,78.51
2023-03-22T04:56:20.640Z,78.64
2023-03-22T05:01:52.714Z,79.57
2023-03-22T05:07:24.897Z,79.77
2023-03-22T05:12:56.715Z,79.78
2023-03-22T05:18:28.419Z,79.20
2023-03-22T05:23:59.920Z,80.00
2023-03-22T05:29:32.863Z,80.10
2023-03-22T05:35:04.998Z,79.80
2023-03-22T05:40:37.087Z,79.41
2023-03-22T05:46:09.098Z,78.18
2023-03-22T05:51:41.134Z,76.91
2023-03-22T05:57:13.129Z,75.34
2023-03-22T06:02:45.400Z,74.46
2023-03-22T06:13:46.691Z,72.71
2023-03-22T06:19:18.796Z,72.05
2023-03-22T06:24:50.321Z,70.40
2023-03-22T06:30:22.615Z,69.61
2023-03-22T06:35:54.045Z,68.81
2023-03-22T06:41:25.790Z,67.47
2023-03-22T06:46:57.535Z,66.17
2023-03-22T06:52:29.575Z,64.52
2023-03-22T06:58:01.356Z,63.79
2023-03-22T07:03:32.799Z,62.59
2023-03-22T07:09:04.435Z,61.39
2023-03-22T07:14:36.301Z,59.22
2023-03-22T07:20:08.240Z,58.75
2023-03-22T07:25:39.976Z,57.04
2023-03-22T07:31:11.826Z,54.93
2023-03-22T07:36:43.495Z,52.80
2023-03-22T07:42:15.786Z,51.66
2023-03-22T07:47:48.096Z,51.83
2023-03-22T07:53:20.427Z,51.53
2023-03-22T07:58:52.051Z,49.28
2023-03-22T08:04:23.724Z,46.90
2023-03-22T08:09:55.771Z,46.99
2023-03-22T08:15:26.913Z,45.15
2023-03-22T08:20:58.339Z,44.95
2023-03-22T08:26:29.902Z,44.99
2023-03-22T08:32:01.888Z,43.78
2023-03-22T08:37:33.158Z,43.58
2023-03-22T08:43:05.001Z,43.79
2023-03-22T08:48:36.787Z,44.12
2023-03-22T08:54:08.892Z,43.71
2023-03-22T08:59:41.070Z,43.03
2023-03-22T09:05:12.533Z,42.06
2023-03-22T09:10:44.326Z,42.90
2023-03-22T09:16:16.315Z,40.26
2023-03-22T09:21:47.559Z,40.45
2023-03-22T09:27:19.432Z,42.23
2023-03-22T09:32:51.332Z,39.45
2023-03-22T09:38:23.635Z,38.91
2023-03-22T09:43:55.520Z,38.58
2023-03-22T09:49:27.850Z,40.47
2023-03-22T09:54:59.642Z,39.85
2023-03-22T10:00:31.556Z,39.84
2023-03-22T10:06:03.255Z,39.98
2023-03-22T10:11:35.048Z,39.84
2023-03-22T10:17:07.054Z,40.64
2023-03-22T10:22:45.231Z,40.58
2023-03-22T10:28:17.123Z,41.67
2023-03-22T10:33:48.976Z,41.57
2023-03-22T10:39:20.891Z,41.28
2023-03-22T10:44:52.613Z,41.32
2023-03-22T10:50:24.341Z,40.99
2023-03-22T10:55:56.268Z,41.93
2023-03-22T11:01:28.485Z,41.78
2023-03-22T11:06:59.912Z,42.63
2023-03-22T11:12:32.081Z,42.72
2023-03-22T11:18:04.097Z,42.57
2023-03-22T11:23:36.071Z,42.13
2023-03-22T11:29:08.085Z,43.11
2023-03-22T11:34:40.064Z,43.76
2023-03-22T11:40:12.224Z,44.31
2023-03-22T11:45:44.186Z,43.88
2023-03-22T11:51:16.941Z,43.69
2023-03-22T11:56:48.044Z,43.76
2023-03-22T12:02:20.212Z,44.18
2023-03-22T12:07:52.053Z,43.62
2023-03-22T12:13:23.962Z,44.32
2023-03-22T12:18:56.080Z,43.67
2023-03-22T12:24:28.419Z,44.25
2023-03-22T12:30:00.268Z,44.07
2023-03-22T12:35:33.111Z,43.49
2023-03-22T12:41:04.767Z,43.06
2023-03-22T12:46:37.011Z,42.64
2023-03-22T12:52:08.736Z,42.50
2023-03-22T12:57:40.884Z,41.74
2023-03-22T13:03:14.373Z,42.20
2023-03-22T13:08:46.143Z,43.05
2023-03-22T13:14:18.342Z,41.09
2023-03-22T13:19:50.340Z,40.67
2023-03-22T13:25:22.037Z,41.56
2023-03-22T13:30:54.060Z,40.82
2023-03-22T13:36:26.312Z,40.38
2023-03-22T13:41:58.794Z,40.27
2023-03-22T13:47:30.765Z,39.92
2023-03-22T13:53:02.615Z,39.96
2023-03-22T13:58:34.624Z,39.31
2023-03-22T14:04:06.613Z,40.30
2023-03-22T14:09:39.153Z,40.49
2023-03-22T14:15:11.103Z,39.58
2023-03-22T14:20:43.772Z,41.28
